This is the latest recevied weather packets stored in our database for station/object OK1JIL-13. If no packets are shown the sender has not sent any weather packets the latest 10 day(s).
| Time | Temp. | Humidity | Pressure | Rain* | Wind** | Luminosity | Snow |
|---|---|---|---|---|---|---|---|
| 1777013573 | 11.67° C | 45% | 1016.7 hPa | - | - | - | - |
| 1777012973 | 11.67° C | 46% | 1016.8 hPa | - | - | - | - |
| 1777012373 | 12.22° C | 45% | 1016.7 hPa | - | - | - | - |
| 1777011773 | 11.67° C | 49% | 1016.8 hPa | - | - | - | - |
| 1777011173 | 11.11° C | 50% | 1016.8 hPa | - | - | - | - |
| 1777010573 | 10.56° C | 54% | 1017 hPa | - | - | - | - |
| 1777009973 | 9.44° C | 56% | 1017.1 hPa | - | - | - | - |
| 1777009373 | 10.56° C | 55% | 1017 hPa | - | - | - | - |
| 1777008773 | 11.67° C | 52% | 1017.1 hPa | - | - | - | - |
| 1777008172 | 11.11° C | 53% | 1017.2 hPa | - | - | - | - |
| 1777007572 | 9.44° C | 56% | 1017.2 hPa | - | - | - | - |
| 1777006974 | 10° C | 56% | 1017.3 hPa | - | - | - | - |
| 1777006372 | 10.56° C | 55% | 1017.2 hPa | - | - | - | - |
| 1777005773 | 10° C | 57% | 1017.4 hPa | - | - | - | - |
| 1777005172 | 9.44° C | 59% | 1017.2 hPa | - | - | - | - |
| 1777004572 | 9.44° C | 59% | 1017.2 hPa | - | - | - | - |
| 1777003973 | 8.89° C | 60% | 1017.2 hPa | - | - | - | - |
| 1777003374 | 7.78° C | 62% | 1017.1 hPa | - | - | - | - |
| 1777002773 | 8.33° C | 60% | 1017.2 hPa | - | - | - | - |
| 1777002172 | 7.78° C | 63% | 1017.2 hPa | - | - | - | - |
| 1777001573 | 7.78° C | 61% | 1017.3 hPa | - | - | - | - |
| 1777000973 | 7.78° C | 61% | 1017.4 hPa | - | - | - | - |
| 1777000373 | 9.44° C | 55% | 1017.3 hPa | - | - | - | - |
| 1776999773 | 8.89° C | 58% | 1017.3 hPa | - | - | - | - |
| 1776999172 | 8.33° C | 59% | 1017.4 hPa | - | - | - | - |
* Rain since midnight (hover to see other rain measurements)
** Current wind speed in m/s (hover to see current wind gust speed)